Latest Weather Observations for Paraburdoo

IDW60801

Issued at 3:34 pm WST Saturday 25 March 2017 (issued every 30 minutes, with the page automatically refreshed every 10 minutes)

About weather observations | Map of weather stations | Latest weather observations for WA | Other Formats
Station Details ID: 007185 Name: PARABURDOO AERO Lat: -23.17 Lon: 117.75 Height: 423.7 m
Data from the previous 72 hours. | See also: Recent months at Paraburdoo
Date/Time
WST
Temp
°C
App
Temp
°C
Dew
Point
°C
Rel
Hum
%
Delta-T
°C
Wind Press
QNH
hPa
Press
MSL
hPa
Rain since
9am
mm
Dir  Spd
km/h
Gust
km/h
Spd
kts
Gust
kts
25/03:30pm 32.0 32.3 17.9 43 9.2 WSW 13 20 7 11 1007.7 1004.4 0.2
25/03:00pm 32.2 34.2 18.8 45 8.9 SE 6 11 3 6 1007.7 1004.4 0.2
25/02:30pm 31.8 32.8 18.7 45 8.6 W 11 19 6 10 1008.0 1004.7 0.2
25/02:00pm 30.9 31.6 18.9 48 7.9 W 13 19 7 10 1008.3 1005.0 0.2
25/01:30pm 30.4 32.3 19.7 52 7.1 S 9 17 5 9 1008.7 1005.4 0.2
25/01:00pm 30.8 32.2 20.4 54 7.0 WNW 13 20 7 11 1009.0 1005.7 0.2
25/12:30pm 29.9 32.4 20.2 56 6.5 SW 7 11 4 6 1009.5 1006.2 0.2
25/12:00pm 30.0 32.2 21.9 62 5.6 W 13 19 7 10 1009.9 1006.6 0.2
25/11:30am 29.1 31.5 20.8 61 5.6 W 9 15 5 8 1010.3 1007.0 0.2
25/11:00am 28.6 30.7 20.1 60 5.7 WSW 9 13 5 7 1010.5 1007.2 0.2
25/10:30am 28.8 32.1 21.8 66 4.8 N 7 11 4 6 1010.7 1007.5 0.2
25/10:00am 27.5 30.7 21.3 69 4.2 N 6 9 3 5 1011.0 1007.8 0.2
25/09:30am 26.9 30.5 22.1 75 3.3 ESE 6 9 3 5 1011.2 1007.9 0.0
25/09:00am 25.3 30.6 23.0 87 1.6 CALM 0 0 0 0 1011.0 1007.8 0.4
25/08:30am 24.6 29.6 23.2 92 1.0 ENE 2 7 1 4 1010.9 1007.7 0.4
25/08:00am 24.4 29.5 24.1 98 0.2 ENE 4 7 2 4 1010.6 1007.3 0.4
25/07:30am 23.7 28.1 23.5 99 0.1 ENE 6 7 3 4 1010.2 1006.9 0.4
25/07:00am 22.3 27.2 22.3 100 0.0 CALM 0 0 0 0 1009.9 1006.6 0.4
25/06:30am 21.6 25.4 21.6 100 0.0 NE 4 7 2 4 1009.7 1006.4 0.4
25/06:00am 21.8 26.4 21.8 100 0.0 CALM 0 0 0 0 1009.5 1006.2 0.4
25/05:30am 21.8 26.4 21.8 100 0.0 CALM 0 0 0 0 1009.3 1006.0 0.4
25/05:00am 23.2 28.2 23.2 100 0.0 ENE 2 6 1 3 1009.2 1005.9 0.4
25/04:30am 22.3 25.5 22.3 100 0.0 ENE 9 11 5 6 1009.0 1005.7 0.4
25/04:00am 21.9 25.4 21.9 100 0.0 ENE 6 7 3 4 1009.0 1005.7 0.4
25/03:55am 22.3 26.0 22.3 100 0.0 ENE 6 6 3 3 1009.0 1005.7 0.4
25/03:30am 22.3 26.0 22.3 100 0.0 ENE 6 7 3 4 1009.0 1005.7 0.4
25/03:00am 22.0 26.7 22.0 100 0.0 CALM 0 0 0 0 1008.8 1005.5 0.4
25/02:47am 22.0 26.7 22.0 100 0.0 CALM 0 0 0 0 1008.7 1005.4 0.4
25/02:30am 22.1 26.9 22.1 100 0.0 CALM 0 0 0 0 1008.7 1005.4 0.4
25/02:00am 22.1 26.9 22.1 100 0.0 CALM 0 0 0 0 1008.7 1005.4 0.4
25/01:30am 22.4 27.3 22.4 100 0.0 CALM 0 0 0 0 1008.8 1005.5 0.4
25/01:00am 22.5 27.5 22.5 100 0.0 CALM 0 0 0 0 1009.0 1005.7 0.4
25/12:30am 22.8 27.6 22.8 100 0.0 NW 2 6 1 3 1009.2 1005.9 0.4
25/12:00am 22.9 26.4 22.9 100 0.0 WNW 9 11 5 6 1009.2 1005.9 0.4
 
Date/Time
WST
Temp
°C
App
Temp
°C
Dew
Point
°C
Rel
Hum
%
Delta-T
°C
Wind Press
QNH
hPa
Press
MSL
hPa
Rain since
9am
mm
Dir  Spd
km/h
Gust
km/h
Spd
kts
Gust
kts
24/11:30pm 23.3 28.4 23.3 100 0.0 SSE 2 9 1 5 1009.3 1006.0 0.4
24/11:00pm 23.4 27.2 23.4 100 0.0 ESE 9 11 5 6 1009.6 1006.3 0.4
24/10:30pm 23.6 27.8 23.4 99 0.1 SE 7 9 4 5 1010.0 1006.7 0.4
24/10:00pm 23.7 27.5 23.5 99 0.1 SSW 9 11 5 6 1009.9 1006.6 0.4
24/09:54pm 23.7 27.5 23.5 99 0.1 S 9 11 5 6 1010.0 1006.7 0.4
24/09:33pm 24.3 27.3 24.0 98 0.2 SW 15 20 8 11 1009.9 1006.6 0.4
24/09:30pm 24.4 27.1 24.1 98 0.2 WSW 17 24 9 13 1009.8 1006.5 0.4
24/09:00pm 24.8 28.1 24.5 98 0.2 W 15 17 8 9 1009.5 1006.2 0.4
24/08:30pm 24.7 29.1 24.4 98 0.2 NW 9 13 5 7 1009.3 1006.0 0.4
24/08:00pm 24.6 29.0 24.4 99 0.1 NNW 9 11 5 6 1009.1 1005.8 0.4
24/07:30pm 24.8 29.8 24.5 98 0.2 WNW 6 7 3 4 1008.8 1005.5 0.4
24/07:00pm 25.2 30.1 24.7 97 0.4 SW 7 9 4 5 1008.1 1004.8 0.4
24/06:30pm 25.5 29.6 23.9 91 1.1 WNW 9 11 5 6 1007.6 1004.3 0.4
24/06:00pm 26.0 29.5 23.5 86 1.7 WSW 11 15 6 8 1007.4 1004.1 0.4
24/05:30pm 26.5 28.5 23.0 81 2.4 W 17 20 9 11 1007.2 1003.9 0.4
24/05:00pm 27.2 31.5 23.7 81 2.4 SW 7 13 4 7 1006.9 1003.6 0.4
24/04:30pm 26.4 29.3 23.1 82 2.3 SW 13 24 7 13 1006.7 1003.4 0.4
24/04:06pm 26.3 29.3 23.4 84 2.0 WSW 13 19 7 10 1006.7 1003.4 0.4
24/04:00pm 26.6 29.9 23.9 85 1.9 WSW 13 20 7 11 1006.7 1003.4 0.4
24/03:53pm 26.4 31.2 25.7 96 0.5 SSW 11 17 6 9 1006.6 1003.3 0.4
24/03:30pm 25.4 29.7 24.9 97 0.4 SW 11 19 6 10 1006.7 1003.4 0.4
24/03:06pm 25.0 29.2 24.7 98 0.2 S 11 15 6 8 1006.7 1003.4 0.4
24/03:00pm 24.8 28.5 24.6 99 0.1 S 13 17 7 9 1006.7 1003.4 0.4
24/02:54pm 24.6 28.2 24.3 98 0.2 S 13 17 7 9 1006.7 1003.4 0.4
24/02:30pm 26.1 29.6 22.8 82 2.3 WSW 9 17 5 9 1006.4 1003.0 0.4
24/02:00pm 25.6 28.6 23.3 87 1.6 SW 13 19 7 10 1006.6 1003.3 0.2
24/01:30pm 25.5 27.5 23.0 86 1.7 W 17 20 9 11 1006.7 1003.4 0.2
24/01:00pm 25.6 28.3 23.5 88 1.5 WSW 15 20 8 11 1006.8 1003.5 0.2
24/12:30pm 24.2 27.9 23.9 98 0.2 WNW 11 17 6 9 1007.1 1003.8 0.2
24/12:16pm 24.5 27.6 23.5 94 0.7 WSW 13 17 7 9 1007.2 1003.9 0.2
24/12:00pm 24.5 28.3 23.5 94 0.7 SW 9 15 5 8 1007.2 1003.9 0.2
24/11:30am 23.8 26.9 23.6 99 0.1 SW 13 19 7 10 1007.3 1004.0 0.2
24/11:27am 23.8 26.9 23.6 99 0.1 SW 13 17 7 9 1007.3 1004.0 0.2
24/11:02am 22.8 25.1 22.8 100 0.0 WSW 15 20 8 11 1007.4 1004.1 0.2
24/11:00am 23.2 25.7 23.2 100 0.0 SW 15 20 8 11 1007.4 1004.1 0.2
24/10:30am 23.4 25.9 23.2 99 0.1 WSW 15 22 8 12 1007.6 1004.3 0.2
24/10:15am 23.5 26.1 23.3 99 0.1 SW 15 24 8 13 1007.6 1004.3 0.0
24/10:00am 22.8 24.4 22.8 100 0.0 WSW 19 26 10 14 1007.6 1004.3 0.0
24/09:54am 22.4 23.7 22.4 100 0.0 WSW 19 26 10 14 1007.6 1004.3 0.0
24/09:51am 22.8 24.2 22.6 99 0.1 SW 19 24 10 13 1007.6 1004.3 0.0
24/09:32am 22.6 23.9 22.6 100 0.0 WSW 20 26 11 14 1007.6 1004.3 0.0
24/09:30am 22.5 23.7 22.5 100 0.0 W 20 26 11 14 1007.5 1004.2 0.0
24/09:11am 22.4 23.5 22.4 100 0.0 WSW 20 24 11 13 1007.4 1004.1 0.0
24/09:00am 22.2 23.2 22.2 100 0.0 WSW 20 26 11 14 1007.4 1004.1 45.8
24/08:30am 21.9 23.3 21.9 100 0.0 W 17 22 9 12 1007.3 1004.0 45.8
24/08:00am 21.8 23.2 21.8 100 0.0 W 17 20 9 11 1006.7 1003.4 45.2
24/07:30am 21.6 22.9 21.6 100 0.0 W 17 19 9 10 1006.3 1002.9 45.0
24/07:00am 21.4 22.6 21.4 100 0.0 WSW 17 20 9 11 1005.7 1002.4 45.0
24/06:31am 21.3 23.2 21.3 100 0.0 WSW 13 17 7 9 1005.3 1002.0 44.8
24/06:30am 21.3 23.2 21.3 100 0.0 SW 13 17 7 9 1005.3 1002.0 44.8
24/06:27am 21.4 23.3 21.4 100 0.0 SW 13 17 7 9 1005.3 1002.0 44.8
24/06:01am 21.4 23.0 21.4 100 0.0 WSW 15 17 8 9 1005.1 1001.8 44.8
24/06:00am 21.5 23.1 21.5 100 0.0 WSW 15 17 8 9 1005.1 1001.8 44.8
24/05:30am 21.4 23.0 21.4 100 0.0 SW 15 20 8 11 1004.9 1001.6 44.8
24/05:00am 21.5 23.5 21.5 100 0.0 SSW 13 20 7 11 1004.8 1001.5 44.8
24/04:30am 21.5 23.9 21.5 100 0.0 SSW 11 15 6 8 1004.6 1001.3 44.4
24/04:00am 21.6 23.3 21.6 100 0.0 SSW 15 24 8 13 1004.5 1001.2 44.4
24/03:30am 21.9 23.3 21.9 100 0.0 SSW 17 24 9 13 1004.3 1001.0 44.4
24/03:00am 22.1 23.3 22.1 100 0.0 SSW 19 24 10 13 1004.4 1001.1 44.4
24/02:30am 22.6 24.8 22.6 100 0.0 S 15 20 8 11 1004.5 1001.2 44.4
24/02:00am 23.0 25.4 23.0 100 0.0 SSE 15 20 8 11 1004.6 1001.3 44.4
24/01:41am 23.2 26.1 23.2 100 0.0 SSE 13 19 7 10 1004.7 1001.4 44.4
24/01:30am 23.3 25.9 23.3 100 0.0 SSE 15 24 8 13 1004.6 1001.3 44.4
24/01:24am 23.2 25.0 23.2 100 0.0 SSE 19 30 10 16 1004.6 1001.3 44.4
24/01:00am 23.2 25.7 23.2 100 0.0 S 15 20 8 11 1004.9 1001.6 44.4
24/12:52am 23.1 25.6 23.1 100 0.0 S 15 24 8 13 1005.0 1001.7 44.4
24/12:45am 23.3 25.5 23.3 100 0.0 S 17 24 9 13 1005.0 1001.7 44.4
24/12:30am 22.7 25.0 22.7 100 0.0 S 15 20 8 11 1005.1 1001.8 44.4
24/12:16am 23.1 25.6 23.1 100 0.0 S 15 22 8 12 1005.2 1001.9 44.0
24/12:02am 23.0 25.4 23.0 100 0.0 SSE 15 20 8 11 1005.4 1002.1 41.2
24/12:00am 23.0 25.4 23.0 100 0.0 SSE 15 20 8 11 1005.4 1002.1 41.2
 
Date/Time
WST
Temp
°C
App
Temp
°C
Dew
Point
°C
Rel
Hum
%
Delta-T
°C
Wind Press
QNH
hPa
Press
MSL
hPa
Rain since
9am
mm
Dir  Spd
km/h
Gust
km/h
Spd
kts
Gust
kts
23/11:30pm 23.9 26.8 23.9 100 0.0 S 15 24 8 13 1005.8 1002.5 40.8
23/11:00pm 24.1 27.2 24.1 100 0.0 SSE 15 26 8 14 1006.2 1002.8 40.8
23/10:30pm 23.8 25.4 23.8 100 0.0 S 22 30 12 16 1006.4 1003.0 40.8
23/10:00pm 23.6 25.4 23.6 100 0.0 S 20 28 11 15 1006.7 1003.4 40.8
23/09:30pm 23.8 26.3 23.8 100 0.0 S 17 28 9 15 1006.9 1003.6 40.8
23/09:00pm 23.5 25.8 23.5 100 0.0 S 17 22 9 12 1006.8 1003.5 40.8
23/08:30pm 23.6 25.6 23.6 100 0.0 S 19 26 10 14 1006.8 1003.5 40.8
23/08:00pm 23.5 25.8 23.5 100 0.0 S 17 26 9 14 1006.8 1003.5 40.8
23/07:53pm 23.3 25.9 23.3 100 0.0 S 15 20 8 11 1006.7 1003.4 40.8
23/07:30pm 23.4 25.7 23.4 100 0.0 S 17 28 9 15 1006.7 1003.4 38.6
23/07:26pm 23.5 25.8 23.5 100 0.0 S 17 26 9 14 1006.6 1003.3 38.0
23/07:00pm 23.8 26.7 23.8 100 0.0 S 15 20 8 11 1006.3 1002.9 37.6
23/06:30pm 23.5 26.6 23.5 100 0.0 S 13 17 7 9 1006.3 1002.9 37.6
23/06:00pm 23.2 26.9 23.2 100 0.0 S 9 13 5 7 1006.0 1002.7 37.6
23/05:31pm 23.3 26.7 23.3 100 0.0 ESE 11 15 6 8 1005.9 1002.6 37.6
23/05:30pm 23.3 26.7 23.3 100 0.0 ESE 11 15 6 8 1005.9 1002.6 37.6
23/05:18pm 23.4 27.2 23.4 100 0.0 E 9 13 5 7 1006.0 1002.7 37.6
23/05:00pm 23.6 27.5 23.6 100 0.0 SW 9 22 5 12 1005.6 1002.3 37.6
23/04:33pm 23.8 28.4 23.8 100 0.0 NE 6 9 3 5 1005.7 1002.4 16.4
23/04:30pm 23.8 28.4 23.8 100 0.0 E 6 9 3 5 1005.8 1002.5 15.4
23/04:03pm 24.3 27.9 24.3 100 0.0 SE 13 17 7 9 1005.5 1002.2 9.6
23/04:00pm 24.2 27.3 24.2 100 0.0 SE 15 19 8 10 1005.5 1002.2 9.4
23/03:30pm 24.2 26.9 24.2 100 0.0 SSE 17 24 9 13 1005.7 1002.4 8.4
23/03:26pm 24.3 26.7 24.3 100 0.0 SSE 19 24 10 13 1005.7 1002.4 7.2
23/03:22pm 24.4 27.3 24.4 100 0.0 S 17 22 9 12 1005.6 1002.3 6.2
23/03:00pm 24.7 27.4 24.7 100 0.0 S 19 26 10 14 1005.6 1002.3 5.6
23/02:49pm 24.6 28.0 24.6 100 0.0 S 15 22 8 12 1005.8 1002.5 5.6
23/02:30pm 24.4 27.6 24.4 100 0.0 SSE 15 20 8 11 1006.0 1002.7 5.2
23/02:00pm 24.5 27.3 24.3 99 0.1 SSE 17 26 9 14 1006.4 1003.0 2.6
23/01:44pm 24.5 27.3 24.3 99 0.1 SE 17 26 9 14 1006.5 1003.2 2.2
23/01:43pm 24.6 27.8 24.4 99 0.1 SE 15 24 8 13 1006.5 1003.2 2.0
23/01:30pm 24.8 28.2 24.6 99 0.1 SSE 15 20 8 11 1006.6 1003.3 1.6
23/01:22pm 24.8 27.3 24.5 98 0.2 SE 19 26 10 14 1006.6 1003.3 1.0
23/01:00pm 26.6 28.5 22.7 79 2.7 SSE 17 24 9 13 1006.7 1003.4 0.4
23/12:30pm 26.4 29.1 23.5 84 2.0 SE 15 20 8 11 1007.1 1003.8 0.4
23/12:00pm 25.4 26.5 22.3 83 2.1 E 20 28 11 15 1007.8 1004.5 0.2
23/11:30am 27.4 28.4 21.0 68 4.3 SE 17 22 9 12 1008.0 1004.7 0.0
23/11:00am 26.5 27.6 21.3 73 3.5 SE 17 20 9 11 1008.5 1005.2 0.0
23/10:30am 25.9 27.2 20.9 74 3.3 ESE 15 22 8 12 1009.0 1005.7 0.0
23/10:00am 25.6 26.6 21.1 76 3.0 ESE 17 24 9 13 1008.9 1005.6 0.0
23/09:30am 25.2 26.2 21.7 81 2.4 ESE 19 24 10 13 1009.4 1006.1 0.0
23/09:00am 24.7 26.7 22.2 86 1.7 ESE 15 19 8 10 1009.6 1006.3 6.2
23/08:30am 24.4 26.8 22.3 88 1.4 SE 13 20 7 11 1009.7 1006.4 6.2
23/08:00am 24.2 25.5 21.7 86 1.7 ESE 17 20 9 11 1009.4 1006.1 6.2
23/07:30am 23.9 26.5 22.0 89 1.3 ESE 11 15 6 8 1009.0 1005.7 6.2
23/07:00am 23.6 26.6 21.9 90 1.1 SE 9 13 5 7 1008.7 1005.4 6.2
23/06:30am 23.4 26.9 21.8 91 1.1 ESE 6 6 3 3 1008.5 1005.2 6.2
23/06:00am 23.7 26.3 21.2 86 1.7 E 9 13 5 7 1008.3 1005.0 6.2
23/05:30am 23.7 25.5 21.2 86 1.7 ESE 13 17 7 9 1008.2 1004.9 6.2
23/05:00am 23.6 25.9 21.3 87 1.5 ESE 11 15 6 8 1008.1 1004.8 6.2
23/04:30am 23.6 25.9 21.3 87 1.5 ESE 11 13 6 7 1008.0 1004.7 6.2
23/04:00am 23.6 25.6 21.5 88 1.4 ESE 13 17 7 9 1008.2 1004.9 6.2
23/03:30am 23.5 26.4 21.8 90 1.1 SE 9 15 5 8 1008.3 1005.0 6.2
23/03:00am 23.5 24.6 21.2 87 1.5 ESE 17 20 9 11 1008.4 1005.1 6.2
23/02:30am 23.6 24.6 21.1 86 1.7 ESE 17 20 9 11 1008.7 1005.4 6.2
23/02:00am 23.6 24.8 21.5 88 1.4 E 17 20 9 11 1008.7 1005.4 6.2
23/01:30am 23.7 28.0 22.7 94 0.7 SE 4 11 2 6 1008.8 1005.5 6.2
23/01:00am 23.7 28.5 22.1 91 1.1 CALM 0 0 0 0 1009.0 1005.7 6.2
23/12:30am 23.6 27.6 22.0 91 1.1 ENE 4 6 2 3 1009.4 1006.1 6.2
23/12:00am 23.6 26.5 21.7 89 1.3 ENE 9 11 5 6 1009.6 1006.3 6.2
 
Date/Time
WST
Temp
°C
App
Temp
°C
Dew
Point
°C
Rel
Hum
%
Delta-T
°C
Wind Press
QNH
hPa
Press
MSL
hPa
Rain since
9am
mm
Dir  Spd
km/h
Gust
km/h
Spd
kts
Gust
kts
22/11:30pm 23.7 26.5 21.6 88 1.4 NE 9 11 5 6 1009.8 1006.5 6.2
22/11:00pm 23.8 25.8 20.7 83 2.1 ENE 11 17 6 9 1010.2 1006.9 6.2
22/10:30pm 24.3 25.5 20.0 77 2.8 ENE 13 19 7 10 1010.6 1007.3 6.2
22/10:00pm 24.8 24.0 20.1 75 3.1 ENE 24 35 13 19 1011.0 1007.8 6.2
22/09:30pm 24.9 25.9 20.2 75 3.1 NE 15 17 8 9 1011.0 1007.8 6.2
22/09:00pm 25.2 26.5 20.2 74 3.3 NE 13 15 7 8 1010.5 1007.2 6.2
22/08:30pm 25.1 27.8 22.2 84 2.0 ENE 11 15 6 8 1010.3 1007.0 6.2
22/08:00pm 25.3 28.5 21.6 80 2.5 E 7 9 4 5 1010.2 1006.9 6.2
22/07:30pm 25.1 26.7 21.4 80 2.5 E 15 20 8 11 1010.2 1006.9 6.2
22/07:00pm 25.1 26.9 21.2 79 2.6 NE 13 17 7 9 1010.2 1006.9 6.2
22/06:30pm 25.4 27.2 20.4 74 3.3 ENE 11 15 6 8 1009.6 1006.3 6.2
22/06:00pm 25.7 27.6 20.5 73 3.5 NE 11 15 6 8 1009.3 1006.0 6.2
22/05:30pm 25.8 27.5 21.0 75 3.2 ENE 13 19 7 10 1008.9 1005.6 6.2
22/05:00pm 25.9 26.4 20.9 74 3.4 ENE 19 24 10 13 1008.7 1005.4 6.2
22/04:30pm 25.9 27.7 21.1 75 3.2 ENE 13 17 7 9 1008.7 1005.4 6.2
22/04:00pm 25.6 28.2 21.9 80 2.5 ENE 11 19 6 10 1008.5 1005.2 6.2

Other Formats:

Comma delimited format used in spreadsheet applications
http://www.bom.gov.au/fwo/IDW60801/IDW60801.94316.axf

JavaScript Object Notation format (JSON) in row-major order
http://www.bom.gov.au/fwo/IDW60801/IDW60801.94316.json